sensor_id;sensor_type;location;lat;lon;timestamp;P1;durP1;ratioP1;P2;durP2;ratioP2
48526;SDS011;34317;51.660;5.824;2024-03-29T00:01:26;4.78;;;1.00;;
48526;SDS011;34317;51.660;5.824;2024-03-29T00:03:52;5.25;;;1.25;;
48526;SDS011;34317;51.660;5.824;2024-03-29T00:06:19;4.90;;;1.10;;
48526;SDS011;34317;51.660;5.824;2024-03-29T00:08:45;4.13;;;1.20;;
48526;SDS011;34317;51.660;5.824;2024-03-29T00:11:12;3.75;;;0.80;;
48526;SDS011;34317;51.660;5.824;2024-03-29T00:13:38;3.13;;;1.05;;
48526;SDS011;34317;51.660;5.824;2024-03-29T00:16:04;3.65;;;0.90;;
48526;SDS011;34317;51.660;5.824;2024-03-29T00:18:30;2.67;;;1.20;;
48526;SDS011;34317;51.660;5.824;2024-03-29T00:20:57;5.00;;;1.05;;
48526;SDS011;34317;51.660;5.824;2024-03-29T00:23:23;4.40;;;1.20;;
48526;SDS011;34317;51.660;5.824;2024-03-29T00:25:49;4.60;;;0.90;;
48526;SDS011;34317;51.660;5.824;2024-03-29T00:28:15;5.25;;;1.10;;
48526;SDS011;34317;51.660;5.824;2024-03-29T00:30:41;2.53;;;0.90;;
48526;SDS011;34317;51.660;5.824;2024-03-29T00:33:07;3.75;;;0.93;;
48526;SDS011;34317;51.660;5.824;2024-03-29T00:35:34;4.32;;;1.13;;
48526;SDS011;34317;51.660;5.824;2024-03-29T00:38:00;2.22;;;0.95;;
48526;SDS011;34317;51.660;5.824;2024-03-29T00:40:26;2.55;;;1.00;;
48526;SDS011;34317;51.660;5.824;2024-03-29T00:42:52;2.83;;;1.00;;
48526;SDS011;34317;51.660;5.824;2024-03-29T00:45:19;5.68;;;1.92;;
48526;SDS011;34317;51.660;5.824;2024-03-29T00:47:46;4.18;;;0.90;;
48526;SDS011;34317;51.660;5.824;2024-03-29T00:50:12;4.15;;;1.38;;
48526;SDS011;34317;51.660;5.824;2024-03-29T00:52:38;4.35;;;1.23;;
48526;SDS011;34317;51.660;5.824;2024-03-29T00:55:05;4.45;;;1.15;;
48526;SDS011;34317;51.660;5.824;2024-03-29T00:57:31;2.25;;;0.90;;
48526;SDS011;34317;51.660;5.824;2024-03-29T00:59:57;5.18;;;1.27;;
48526;SDS011;34317;51.660;5.824;2024-03-29T01:02:23;3.50;;;1.10;;
48526;SDS011;34317;51.660;5.824;2024-03-29T01:04:50;3.92;;;1.00;;
48526;SDS011;34317;51.660;5.824;2024-03-29T01:07:17;5.07;;;1.20;;
48526;SDS011;34317;51.660;5.824;2024-03-29T01:09:43;5.47;;;1.27;;
48526;SDS011;34317;51.660;5.824;2024-03-29T01:12:10;4.65;;;1.13;;
48526;SDS011;34317;51.660;5.824;2024-03-29T01:14:37;4.60;;;0.98;;
48526;SDS011;34317;51.660;5.824;2024-03-29T01:17:03;3.53;;;0.90;;
48526;SDS011;34317;51.660;5.824;2024-03-29T01:19:30;3.63;;;0.98;;
48526;SDS011;34317;51.660;5.824;2024-03-29T01:21:56;3.20;;;1.05;;
48526;SDS011;34317;51.660;5.824;2024-03-29T01:24:22;4.75;;;1.15;;
48526;SDS011;34317;51.660;5.824;2024-03-29T01:26:48;3.42;;;0.80;;
48526;SDS011;34317;51.660;5.824;2024-03-29T01:29:15;4.05;;;0.82;;
48526;SDS011;34317;51.660;5.824;2024-03-29T01:31:42;2.95;;;0.90;;
48526;SDS011;34317;51.660;5.824;2024-03-29T01:34:08;2.55;;;0.80;;
48526;SDS011;34317;51.660;5.824;2024-03-29T01:36:34;2.80;;;0.82;;
48526;SDS011;34317;51.660;5.824;2024-03-29T01:39:01;2.58;;;0.95;;
48526;SDS011;34317;51.660;5.824;2024-03-29T01:41:27;1.83;;;0.70;;
48526;SDS011;34317;51.660;5.824;2024-03-29T01:43:53;2.45;;;0.95;;
48526;SDS011;34317;51.660;5.824;2024-03-29T01:46:21;3.88;;;0.82;;
48526;SDS011;34317;51.660;5.824;2024-03-29T01:48:51;2.25;;;0.85;;
48526;SDS011;34317;51.660;5.824;2024-03-29T01:51:56;3.70;;;0.90;;
48526;SDS011;34317;51.660;5.824;2024-03-29T01:55:39;1.83;;;0.80;;
48526;SDS011;34317;51.660;5.824;2024-03-29T01:58:56;4.65;;;0.80;;
48526;SDS011;34317;51.660;5.824;2024-03-29T02:01:26;3.80;;;0.73;;
48526;SDS011;34317;51.660;5.824;2024-03-29T02:03:54;2.95;;;1.20;;
48526;SDS011;34317;51.660;5.824;2024-03-29T02:06:21;3.63;;;1.08;;
48526;SDS011;34317;51.660;5.824;2024-03-29T02:08:57;3.42;;;1.05;;
48526;SDS011;34317;51.660;5.824;2024-03-29T02:11:23;3.75;;;0.80;;
48526;SDS011;34317;51.660;5.824;2024-03-29T02:13:49;3.67;;;1.15;;
48526;SDS011;34317;51.660;5.824;2024-03-29T02:16:16;4.32;;;0.90;;
48526;SDS011;34317;51.660;5.824;2024-03-29T02:18:42;1.90;;;0.98;;
48526;SDS011;34317;51.660;5.824;2024-03-29T02:21:09;4.30;;;1.25;;
48526;SDS011;34317;51.660;5.824;2024-03-29T02:23:37;2.25;;;0.95;;
48526;SDS011;34317;51.660;5.824;2024-03-29T02:26:09;3.58;;;1.10;;
48526;SDS011;34317;51.660;5.824;2024-03-29T02:28:36;1.58;;;0.80;;
48526;SDS011;34317;51.660;5.824;2024-03-29T02:31:02;3.97;;;1.10;;
48526;SDS011;34317;51.660;5.824;2024-03-29T02:33:28;2.50;;;1.13;;
48526;SDS011;34317;51.660;5.824;2024-03-29T02:35:55;2.38;;;1.02;;
48526;SDS011;34317;51.660;5.824;2024-03-29T02:38:21;3.65;;;1.00;;
48526;SDS011;34317;51.660;5.824;2024-03-29T02:40:47;3.20;;;0.90;;
48526;SDS011;34317;51.660;5.824;2024-03-29T02:43:13;4.40;;;1.23;;
48526;SDS011;34317;51.660;5.824;2024-03-29T02:45:39;3.38;;;0.98;;
48526;SDS011;34317;51.660;5.824;2024-03-29T02:48:06;4.70;;;1.75;;
48526;SDS011;34317;51.660;5.824;2024-03-29T02:50:35;2.60;;;1.10;;
48526;SDS011;34317;51.660;5.824;2024-03-29T02:53:02;2.88;;;0.90;;
48526;SDS011;34317;51.660;5.824;2024-03-29T02:55:28;2.47;;;1.00;;
48526;SDS011;34317;51.660;5.824;2024-03-29T02:57:54;3.75;;;1.02;;
48526;SDS011;34317;51.660;5.824;2024-03-29T03:00:20;2.80;;;1.08;;
48526;SDS011;34317;51.660;5.824;2024-03-29T03:02:46;3.20;;;0.70;;
48526;SDS011;34317;51.660;5.824;2024-03-29T03:05:13;2.97;;;0.70;;
48526;SDS011;34317;51.660;5.824;2024-03-29T03:07:39;2.28;;;0.77;;
48526;SDS011;34317;51.660;5.824;2024-03-29T03:10:24;3.10;;;1.20;;
48526;SDS011;34317;51.660;5.824;2024-03-29T03:13:09;3.03;;;1.10;;
48526;SDS011;34317;51.660;5.824;2024-03-29T03:15:35;2.25;;;0.90;;
48526;SDS011;34317;51.660;5.824;2024-03-29T03:18:01;5.82;;;0.93;;
48526;SDS011;34317;51.660;5.824;2024-03-29T03:20:27;1.98;;;1.00;;
48526;SDS011;34317;51.660;5.824;2024-03-29T03:22:56;4.40;;;0.95;;
48526;SDS011;34317;51.660;5.824;2024-03-29T03:25:24;2.10;;;0.90;;
48526;SDS011;34317;51.660;5.824;2024-03-29T03:27:51;1.52;;;0.90;;
48526;SDS011;34317;51.660;5.824;2024-03-29T03:30:17;2.45;;;0.95;;
48526;SDS011;34317;51.660;5.824;2024-03-29T03:32:43;3.75;;;0.90;;
48526;SDS011;34317;51.660;5.824;2024-03-29T03:35:10;2.40;;;0.90;;
48526;SDS011;34317;51.660;5.824;2024-03-29T03:37:36;2.65;;;0.90;;
48526;SDS011;34317;51.660;5.824;2024-03-29T03:40:02;3.95;;;1.00;;
48526;SDS011;34317;51.660;5.824;2024-03-29T03:42:30;2.53;;;0.80;;
48526;SDS011;34317;51.660;5.824;2024-03-29T03:44:56;2.50;;;0.98;;
48526;SDS011;34317;51.660;5.824;2024-03-29T03:47:22;1.38;;;0.82;;
48526;SDS011;34317;51.660;5.824;2024-03-29T03:49:48;3.08;;;0.77;;
48526;SDS011;34317;51.660;5.824;2024-03-29T03:52:15;4.10;;;0.85;;
48526;SDS011;34317;51.660;5.824;2024-03-29T03:54:41;2.58;;;1.00;;
48526;SDS011;34317;51.660;5.824;2024-03-29T03:57:07;2.35;;;0.90;;
48526;SDS011;34317;51.660;5.824;2024-03-29T03:59:33;1.83;;;0.88;;
48526;SDS011;34317;51.660;5.824;2024-03-29T04:01:59;2.30;;;1.00;;
48526;SDS011;34317;51.660;5.824;2024-03-29T04:04:26;3.95;;;1.05;;
48526;SDS011;34317;51.660;5.824;2024-03-29T04:06:52;1.80;;;0.90;;
48526;SDS011;34317;51.660;5.824;2024-03-29T04:09:18;3.30;;;0.80;;
48526;SDS011;34317;51.660;5.824;2024-03-29T04:11:44;4.50;;;1.00;;
48526;SDS011;34317;51.660;5.824;2024-03-29T04:14:10;3.22;;;0.90;;
48526;SDS011;34317;51.660;5.824;2024-03-29T04:16:36;1.95;;;0.85;;
48526;SDS011;34317;51.660;5.824;2024-03-29T04:19:03;1.98;;;0.80;;
48526;SDS011;34317;51.660;5.824;2024-03-29T04:21:29;3.13;;;0.90;;
48526;SDS011;34317;51.660;5.824;2024-03-29T04:23:55;2.00;;;0.80;;
48526;SDS011;34317;51.660;5.824;2024-03-29T04:26:21;3.72;;;1.00;;
48526;SDS011;34317;51.660;5.824;2024-03-29T04:28:48;1.90;;;1.00;;
48526;SDS011;34317;51.660;5.824;2024-03-29T04:31:14;3.40;;;0.80;;
48526;SDS011;34317;51.660;5.824;2024-03-29T04:33:40;3.10;;;1.23;;
48526;SDS011;34317;51.660;5.824;2024-03-29T04:36:07;2.42;;;0.95;;
48526;SDS011;34317;51.660;5.824;2024-03-29T04:38:33;2.25;;;1.00;;
48526;SDS011;34317;51.660;5.824;2024-03-29T04:40:59;3.50;;;1.23;;
48526;SDS011;34317;51.660;5.824;2024-03-29T04:43:27;2.10;;;1.05;;
48526;SDS011;34317;51.660;5.824;2024-03-29T04:46:04;3.40;;;0.85;;
48526;SDS011;34317;51.660;5.824;2024-03-29T04:48:39;2.83;;;1.10;;
48526;SDS011;34317;51.660;5.824;2024-03-29T04:51:07;3.22;;;0.85;;
48526;SDS011;34317;51.660;5.824;2024-03-29T04:53:35;2.05;;;0.80;;
48526;SDS011;34317;51.660;5.824;2024-03-29T04:56:03;2.40;;;0.95;;
48526;SDS011;34317;51.660;5.824;2024-03-29T04:58:32;2.78;;;0.90;;
48526;SDS011;34317;51.660;5.824;2024-03-29T05:00:59;0.65;;;0.50;;
48526;SDS011;34317;51.660;5.824;2024-03-29T05:03:25;2.78;;;0.90;;
48526;SDS011;34317;51.660;5.824;2024-03-29T05:05:52;3.83;;;0.70;;
48526;SDS011;34317;51.660;5.824;2024-03-29T05:08:19;1.80;;;0.60;;
48526;SDS011;34317;51.660;5.824;2024-03-29T05:10:48;1.85;;;0.80;;
48526;SDS011;34317;51.660;5.824;2024-03-29T05:13:20;2.63;;;0.73;;
48526;SDS011;34317;51.660;5.824;2024-03-29T05:15:48;3.20;;;0.80;;
48526;SDS011;34317;51.660;5.824;2024-03-29T05:18:15;1.52;;;0.60;;
48526;SDS011;34317;51.660;5.824;2024-03-29T05:21:01;1.52;;;0.90;;
48526;SDS011;34317;51.660;5.824;2024-03-29T05:23:28;1.70;;;1.00;;
48526;SDS011;34317;51.660;5.824;2024-03-29T05:25:54;2.72;;;0.80;;
48526;SDS011;34317;51.660;5.824;2024-03-29T05:28:21;1.35;;;0.80;;
48526;SDS011;34317;51.660;5.824;2024-03-29T05:30:48;1.70;;;0.70;;
48526;SDS011;34317;51.660;5.824;2024-03-29T05:33:14;1.83;;;0.82;;
48526;SDS011;34317;51.660;5.824;2024-03-29T05:35:41;0.70;;;0.70;;
48526;SDS011;34317;51.660;5.824;2024-03-29T05:38:07;1.25;;;0.88;;
48526;SDS011;34317;51.660;5.824;2024-03-29T05:40:34;1.30;;;0.68;;
48526;SDS011;34317;51.660;5.824;2024-03-29T05:43:00;0.68;;;0.60;;
48526;SDS011;34317;51.660;5.824;2024-03-29T05:45:27;1.10;;;0.95;;
48526;SDS011;34317;51.660;5.824;2024-03-29T05:47:55;0.73;;;0.73;;
48526;SDS011;34317;51.660;5.824;2024-03-29T05:50:22;1.13;;;0.70;;
48526;SDS011;34317;51.660;5.824;2024-03-29T05:52:50;1.30;;;1.02;;
48526;SDS011;34317;51.660;5.824;2024-03-29T05:55:18;3.05;;;0.70;;
48526;SDS011;34317;51.660;5.824;2024-03-29T05:57:45;2.63;;;1.00;;
48526;SDS011;34317;51.660;5.824;2024-03-29T06:00:12;3.28;;;0.90;;
48526;SDS011;34317;51.660;5.824;2024-03-29T06:02:42;1.55;;;0.90;;
48526;SDS011;34317;51.660;5.824;2024-03-29T06:05:11;1.58;;;0.80;;
48526;SDS011;34317;51.660;5.824;2024-03-29T06:07:37;2.42;;;1.00;;
48526;SDS011;34317;51.660;5.824;2024-03-29T06:10:04;1.05;;;0.90;;
48526;SDS011;34317;51.660;5.824;2024-03-29T06:12:34;1.50;;;0.70;;
48526;SDS011;34317;51.660;5.824;2024-03-29T06:15:02;1.25;;;0.65;;
48526;SDS011;34317;51.660;5.824;2024-03-29T06:17:46;1.27;;;0.83;;
48526;SDS011;34317;51.660;5.824;2024-03-29T06:20:13;1.02;;;0.80;;
48526;SDS011;34317;51.660;5.824;2024-03-29T06:22:39;1.42;;;0.70;;
48526;SDS011;34317;51.660;5.824;2024-03-29T06:25:06;2.08;;;0.90;;
48526;SDS011;34317;51.660;5.824;2024-03-29T06:27:36;1.10;;;0.70;;
48526;SDS011;34317;51.660;5.824;2024-03-29T06:30:05;1.77;;;0.75;;
48526;SDS011;34317;51.660;5.824;2024-03-29T06:32:34;1.33;;;0.82;;
48526;SDS011;34317;51.660;5.824;2024-03-29T06:35:00;2.78;;;0.98;;
48526;SDS011;34317;51.660;5.824;2024-03-29T06:37:26;1.40;;;0.77;;
48526;SDS011;34317;51.660;5.824;2024-03-29T06:39:54;1.90;;;0.80;;
48526;SDS011;34317;51.660;5.824;2024-03-29T06:42:20;1.77;;;0.82;;
48526;SDS011;34317;51.660;5.824;2024-03-29T06:44:46;2.10;;;1.00;;
48526;SDS011;34317;51.660;5.824;2024-03-29T06:47:13;2.25;;;0.80;;
48526;SDS011;34317;51.660;5.824;2024-03-29T06:49:39;0.95;;;0.90;;
48526;SDS011;34317;51.660;5.824;2024-03-29T06:52:05;2.58;;;0.90;;
48526;SDS011;34317;51.660;5.824;2024-03-29T06:54:32;4.68;;;0.70;;
48526;SDS011;34317;51.660;5.824;2024-03-29T06:56:59;1.25;;;0.70;;
48526;SDS011;34317;51.660;5.824;2024-03-29T06:59:26;1.27;;;1.15;;
48526;SDS011;34317;51.660;5.824;2024-03-29T07:01:52;2.67;;;1.00;;
48526;SDS011;34317;51.660;5.824;2024-03-29T07:04:19;1.52;;;0.85;;
48526;SDS011;34317;51.660;5.824;2024-03-29T07:06:46;2.92;;;0.90;;
48526;SDS011;34317;51.660;5.824;2024-03-29T07:09:18;1.05;;;0.80;;
48526;SDS011;34317;51.660;5.824;2024-03-29T07:11:49;1.98;;;0.85;;
48526;SDS011;34317;51.660;5.824;2024-03-29T07:14:17;2.15;;;0.90;;
48526;SDS011;34317;51.660;5.824;2024-03-29T07:16:44;3.58;;;0.90;;
48526;SDS011;34317;51.660;5.824;2024-03-29T07:19:11;1.63;;;0.80;;
48526;SDS011;34317;51.660;5.824;2024-03-29T07:21:39;1.13;;;0.73;;
48526;SDS011;34317;51.660;5.824;2024-03-29T07:24:06;2.33;;;0.73;;
48526;SDS011;34317;51.660;5.824;2024-03-29T07:26:32;1.75;;;0.82;;
48526;SDS011;34317;51.660;5.824;2024-03-29T07:28:59;1.20;;;0.70;;
48526;SDS011;34317;51.660;5.824;2024-03-29T07:31:25;2.25;;;0.93;;
48526;SDS011;34317;51.660;5.824;2024-03-29T07:33:51;1.50;;;0.80;;
48526;SDS011;34317;51.660;5.824;2024-03-29T07:36:18;0.60;;;0.60;;
48526;SDS011;34317;51.660;5.824;2024-03-29T07:38:44;2.90;;;0.80;;
48526;SDS011;34317;51.660;5.824;2024-03-29T07:41:11;1.75;;;0.80;;
48526;SDS011;34317;51.660;5.824;2024-03-29T07:43:38;2.85;;;0.95;;
48526;SDS011;34317;51.660;5.824;2024-03-29T07:46:06;1.15;;;0.90;;
48526;SDS011;34317;51.660;5.824;2024-03-29T07:48:34;0.88;;;0.65;;
48526;SDS011;34317;51.660;5.824;2024-03-29T07:51:02;2.25;;;0.90;;
48526;SDS011;34317;51.660;5.824;2024-03-29T07:53:28;0.80;;;0.80;;
48526;SDS011;34317;51.660;5.824;2024-03-29T07:55:54;1.88;;;1.02;;
48526;SDS011;34317;51.660;5.824;2024-03-29T07:58:21;2.33;;;1.25;;
48526;SDS011;34317;51.660;5.824;2024-03-29T08:00:47;1.77;;;1.10;;
48526;SDS011;34317;51.660;5.824;2024-03-29T08:03:13;2.58;;;1.10;;
48526;SDS011;34317;51.660;5.824;2024-03-29T08:05:40;2.58;;;1.08;;
48526;SDS011;34317;51.660;5.824;2024-03-29T08:08:06;3.03;;;0.80;;
48526;SDS011;34317;51.660;5.824;2024-03-29T08:10:33;1.52;;;0.82;;
48526;SDS011;34317;51.660;5.824;2024-03-29T08:12:59;3.33;;;1.00;;
48526;SDS011;34317;51.660;5.824;2024-03-29T08:15:26;1.58;;;0.93;;
48526;SDS011;34317;51.660;5.824;2024-03-29T08:17:53;3.75;;;1.00;;
48526;SDS011;34317;51.660;5.824;2024-03-29T08:20:19;3.38;;;0.90;;
48526;SDS011;34317;51.660;5.824;2024-03-29T08:22:46;2.13;;;0.95;;
48526;SDS011;34317;51.660;5.824;2024-03-29T08:25:12;1.60;;;0.90;;
48526;SDS011;34317;51.660;5.824;2024-03-29T08:27:38;1.48;;;0.93;;
48526;SDS011;34317;51.660;5.824;2024-03-29T08:30:05;2.92;;;0.80;;
48526;SDS011;34317;51.660;5.824;2024-03-29T08:32:32;1.70;;;1.02;;
48526;SDS011;34317;51.660;5.824;2024-03-29T08:34:58;2.45;;;1.00;;
48526;SDS011;34317;51.660;5.824;2024-03-29T08:37:24;2.05;;;1.00;;
48526;SDS011;34317;51.660;5.824;2024-03-29T08:39:51;1.33;;;0.90;;
48526;SDS011;34317;51.660;5.824;2024-03-29T08:42:17;2.85;;;1.10;;
48526;SDS011;34317;51.660;5.824;2024-03-29T08:44:43;2.67;;;1.02;;
48526;SDS011;34317;51.660;5.824;2024-03-29T08:47:11;3.40;;;1.00;;
48526;SDS011;34317;51.660;5.824;2024-03-29T08:49:37;1.77;;;1.05;;
48526;SDS011;34317;51.660;5.824;2024-03-29T08:52:04;1.33;;;0.93;;
48526;SDS011;34317;51.660;5.824;2024-03-29T08:54:31;2.97;;;1.33;;
48526;SDS011;34317;51.660;5.824;2024-03-29T08:56:58;1.10;;;1.00;;
48526;SDS011;34317;51.660;5.824;2024-03-29T08:59:25;1.20;;;1.00;;
48526;SDS011;34317;51.660;5.824;2024-03-29T09:01:51;2.97;;;1.50;;
48526;SDS011;34317;51.660;5.824;2024-03-29T09:04:18;3.75;;;1.50;;
48526;SDS011;34317;51.660;5.824;2024-03-29T09:06:45;1.75;;;1.25;;
48526;SDS011;34317;51.660;5.824;2024-03-29T09:09:11;2.35;;;1.15;;
48526;SDS011;34317;51.660;5.824;2024-03-29T09:11:39;2.67;;;1.25;;
48526;SDS011;34317;51.660;5.824;2024-03-29T09:14:05;1.77;;;1.15;;
48526;SDS011;34317;51.660;5.824;2024-03-29T09:16:35;1.60;;;1.15;;
48526;SDS011;34317;51.660;5.824;2024-03-29T09:19:01;2.90;;;1.35;;
48526;SDS011;34317;51.660;5.824;2024-03-29T09:21:28;1.83;;;1.20;;
48526;SDS011;34317;51.660;5.824;2024-03-29T09:23:54;1.30;;;1.10;;
48526;SDS011;34317;51.660;5.824;2024-03-29T09:26:20;3.95;;;1.60;;
48526;SDS011;34317;51.660;5.824;2024-03-29T09:28:47;3.05;;;1.50;;
48526;SDS011;34317;51.660;5.824;2024-03-29T09:31:13;1.98;;;1.20;;
48526;SDS011;34317;51.660;5.824;2024-03-29T09:33:39;2.85;;;1.35;;
48526;SDS011;34317;51.660;5.824;2024-03-29T09:36:05;1.73;;;1.20;;
48526;SDS011;34317;51.660;5.824;2024-03-29T09:38:32;2.00;;;1.48;;
48526;SDS011;34317;51.660;5.824;2024-03-29T09:41:03;2.35;;;1.48;;
48526;SDS011;34317;51.660;5.824;2024-03-29T09:43:37;3.00;;;1.92;;
48526;SDS011;34317;51.660;5.824;2024-03-29T09:46:05;4.55;;;1.50;;
48526;SDS011;34317;51.660;5.824;2024-03-29T09:48:32;5.43;;;1.35;;
48526;SDS011;34317;51.660;5.824;2024-03-29T09:51:03;3.40;;;1.35;;
48526;SDS011;34317;51.660;5.824;2024-03-29T09:53:32;3.80;;;1.60;;
48526;SDS011;34317;51.660;5.824;2024-03-29T09:56:05;3.00;;;1.40;;
48526;SDS011;34317;51.660;5.824;2024-03-29T09:58:32;2.47;;;1.52;;
48526;SDS011;34317;51.660;5.824;2024-03-29T10:01:03;3.95;;;1.73;;
48526;SDS011;34317;51.660;5.824;2024-03-29T10:03:35;2.50;;;1.38;;
48526;SDS011;34317;51.660;5.824;2024-03-29T10:06:05;3.22;;;1.50;;
48526;SDS011;34317;51.660;5.824;2024-03-29T10:08:35;2.10;;;1.30;;
48526;SDS011;34317;51.660;5.824;2024-03-29T10:11:02;2.45;;;1.20;;
48526;SDS011;34317;51.660;5.824;2024-03-29T10:13:29;2.00;;;1.33;;
48526;SDS011;34317;51.660;5.824;2024-03-29T10:15:55;4.13;;;1.20;;
48526;SDS011;34317;51.660;5.824;2024-03-29T10:23:27;4.70;;;1.60;;
48526;SDS011;34317;51.660;5.824;2024-03-29T10:25:54;2.72;;;1.33;;
48526;SDS011;34317;51.660;5.824;2024-03-29T10:28:20;2.50;;;1.30;;
48526;SDS011;34317;51.660;5.824;2024-03-29T10:30:46;2.10;;;1.20;;
48526;SDS011;34317;51.660;5.824;2024-03-29T10:33:14;3.25;;;1.17;;
48526;SDS011;34317;51.660;5.824;2024-03-29T10:35:42;2.55;;;1.10;;
48526;SDS011;34317;51.660;5.824;2024-03-29T10:38:11;2.92;;;1.40;;
48526;SDS011;34317;51.660;5.824;2024-03-29T10:40:38;1.38;;;0.80;;
48526;SDS011;34317;51.660;5.824;2024-03-29T10:43:08;2.55;;;1.10;;
48526;SDS011;34317;51.660;5.824;2024-03-29T10:45:38;1.35;;;0.98;;
48526;SDS011;34317;51.660;5.824;2024-03-29T10:48:06;1.83;;;0.98;;
48526;SDS011;34317;51.660;5.824;2024-03-29T10:50:35;1.63;;;1.00;;
48526;SDS011;34317;51.660;5.824;2024-03-29T10:53:03;2.47;;;1.05;;
48526;SDS011;34317;51.660;5.824;2024-03-29T10:55:29;3.75;;;1.00;;
48526;SDS011;34317;51.660;5.824;2024-03-29T10:57:58;2.03;;;0.98;;
48526;SDS011;34317;51.660;5.824;2024-03-29T11:00:28;4.13;;;1.10;;
48526;SDS011;34317;51.660;5.824;2024-03-29T11:05:32;1.90;;;1.02;;
48526;SDS011;34317;51.660;5.824;2024-03-29T11:08:01;1.75;;;1.00;;
48526;SDS011;34317;51.660;5.824;2024-03-29T11:10:30;2.08;;;0.80;;
48526;SDS011;34317;51.660;5.824;2024-03-29T11:15:50;1.20;;;0.90;;
48526;SDS011;34317;51.660;5.824;2024-03-29T11:18:17;1.30;;;0.90;;
48526;SDS011;34317;51.660;5.824;2024-03-29T11:20:45;1.80;;;1.30;;
48526;SDS011;34317;51.660;5.824;2024-03-29T11:23:20;1.42;;;1.13;;
48526;SDS011;34317;51.660;5.824;2024-03-29T11:25:50;4.43;;;1.33;;
48526;SDS011;34317;51.660;5.824;2024-03-29T11:28:37;1.50;;;1.20;;
48526;SDS011;34317;51.660;5.824;2024-03-29T11:31:07;1.55;;;1.10;;
48526;SDS011;34317;51.660;5.824;2024-03-29T11:33:35;1.23;;;0.85;;
48526;SDS011;34317;51.660;5.824;2024-03-29T11:36:11;1.08;;;0.90;;
48526;SDS011;34317;51.660;5.824;2024-03-29T11:38:39;2.15;;;0.88;;
48526;SDS011;34317;51.660;5.824;2024-03-29T11:41:07;0.90;;;0.70;;
48526;SDS011;34317;51.660;5.824;2024-03-29T11:43:36;1.13;;;0.80;;
48526;SDS011;34317;51.660;5.824;2024-03-29T11:46:07;1.77;;;0.90;;
48526;SDS011;34317;51.660;5.824;2024-03-29T11:48:35;0.98;;;0.70;;
48526;SDS011;34317;51.660;5.824;2024-03-29T11:51:03;1.10;;;0.90;;
48526;SDS011;34317;51.660;5.824;2024-03-29T11:53:30;1.23;;;0.77;;
48526;SDS011;34317;51.660;5.824;2024-03-29T11:56:00;1.20;;;0.80;;
48526;SDS011;34317;51.660;5.824;2024-03-29T11:58:28;2.65;;;0.90;;
48526;SDS011;34317;51.660;5.824;2024-03-29T12:00:56;1.33;;;0.90;;
48526;SDS011;34317;51.660;5.824;2024-03-29T12:03:27;1.33;;;1.02;;
48526;SDS011;34317;51.660;5.824;2024-03-29T12:05:55;0.70;;;0.70;;
48526;SDS011;34317;51.660;5.824;2024-03-29T12:08:31;1.10;;;0.90;;
48526;SDS011;34317;51.660;5.824;2024-03-29T12:10:58;1.55;;;0.90;;
48526;SDS011;34317;51.660;5.824;2024-03-29T12:13:26;1.00;;;0.80;;
48526;SDS011;34317;51.660;5.824;2024-03-29T12:15:53;0.80;;;0.70;;
48526;SDS011;34317;51.660;5.824;2024-03-29T12:18:20;0.40;;;0.40;;
48526;SDS011;34317;51.660;5.824;2024-03-29T12:20:47;1.15;;;0.70;;
48526;SDS011;34317;51.660;5.824;2024-03-29T12:23:15;0.60;;;0.60;;
48526;SDS011;34317;51.660;5.824;2024-03-29T12:25:43;1.02;;;0.57;;
48526;SDS011;34317;51.660;5.824;2024-03-29T12:28:10;0.50;;;0.50;;
48526;SDS011;34317;51.660;5.824;2024-03-29T12:30:41;1.48;;;0.50;;
48526;SDS011;34317;51.660;5.824;2024-03-29T12:33:09;0.73;;;0.60;;
48526;SDS011;34317;51.660;5.824;2024-03-29T12:35:41;0.60;;;0.50;;
48526;SDS011;34317;51.660;5.824;2024-03-29T12:38:14;0.43;;;0.43;;
48526;SDS011;34317;51.660;5.824;2024-03-29T12:40:42;0.70;;;0.60;;
48526;SDS011;34317;51.660;5.824;2024-03-29T12:43:10;0.80;;;0.50;;
48526;SDS011;34317;51.660;5.824;2024-03-29T12:45:40;1.02;;;0.70;;
48526;SDS011;34317;51.660;5.824;2024-03-29T12:48:11;0.82;;;0.47;;
48526;SDS011;34317;51.660;5.824;2024-03-29T12:50:46;1.77;;;0.60;;
48526;SDS011;34317;51.660;5.824;2024-03-29T12:53:13;0.50;;;0.50;;
48526;SDS011;34317;51.660;5.824;2024-03-29T12:55:42;0.50;;;0.40;;
48526;SDS011;34317;51.660;5.824;2024-03-29T12:58:15;2.03;;;0.60;;
48526;SDS011;34317;51.660;5.824;2024-03-29T13:00:44;0.50;;;0.43;;
48526;SDS011;34317;51.660;5.824;2024-03-29T13:03:11;1.73;;;0.70;;
48526;SDS011;34317;51.660;5.824;2024-03-29T13:05:38;0.98;;;0.60;;
48526;SDS011;34317;51.660;5.824;2024-03-29T13:08:08;1.40;;;0.45;;
48526;SDS011;34317;51.660;5.824;2024-03-29T13:10:37;0.88;;;0.65;;
48526;SDS011;34317;51.660;5.824;2024-03-29T13:13:05;0.88;;;0.40;;
48526;SDS011;34317;51.660;5.824;2024-03-29T13:15:33;0.60;;;0.45;;
48526;SDS011;34317;51.660;5.824;2024-03-29T13:18:00;0.40;;;0.40;;
48526;SDS011;34317;51.660;5.824;2024-03-29T13:20:27;0.50;;;0.40;;
48526;SDS011;34317;51.660;5.824;2024-03-29T13:22:53;0.50;;;0.50;;
48526;SDS011;34317;51.660;5.824;2024-03-29T13:25:21;1.63;;;0.60;;
48526;SDS011;34317;51.660;5.824;2024-03-29T13:27:51;0.50;;;0.50;;
48526;SDS011;34317;51.660;5.824;2024-03-29T13:30:21;0.45;;;0.45;;
48526;SDS011;34317;51.660;5.824;2024-03-29T13:32:49;0.70;;;0.55;;
48526;SDS011;34317;51.660;5.824;2024-03-29T13:35:15;0.57;;;0.50;;
48526;SDS011;34317;51.660;5.824;2024-03-29T13:37:42;1.05;;;0.70;;
48526;SDS011;34317;51.660;5.824;2024-03-29T13:40:09;2.05;;;0.70;;
48526;SDS011;34317;51.660;5.824;2024-03-29T13:42:39;1.35;;;0.82;;
48526;SDS011;34317;51.660;5.824;2024-03-29T13:45:06;0.80;;;0.60;;
48526;SDS011;34317;51.660;5.824;2024-03-29T13:47:34;0.50;;;0.50;;
48526;SDS011;34317;51.660;5.824;2024-03-29T13:50:01;1.58;;;0.68;;
48526;SDS011;34317;51.660;5.824;2024-03-29T13:52:27;0.70;;;0.70;;
48526;SDS011;34317;51.660;5.824;2024-03-29T13:54:53;1.70;;;0.60;;
48526;SDS011;34317;51.660;5.824;2024-03-29T13:57:20;0.80;;;0.70;;
48526;SDS011;34317;51.660;5.824;2024-03-29T13:59:47;0.70;;;0.70;;
48526;SDS011;34317;51.660;5.824;2024-03-29T14:02:14;0.55;;;0.50;;
48526;SDS011;34317;51.660;5.824;2024-03-29T14:04:42;0.80;;;0.60;;
48526;SDS011;34317;51.660;5.824;2024-03-29T14:07:09;1.83;;;0.68;;
48526;SDS011;34317;51.660;5.824;2024-03-29T14:09:37;1.15;;;0.70;;
48526;SDS011;34317;51.660;5.824;2024-03-29T14:12:04;1.15;;;0.70;;
48526;SDS011;34317;51.660;5.824;2024-03-29T14:14:31;1.00;;;0.70;;
48526;SDS011;34317;51.660;5.824;2024-03-29T14:16:58;3.85;;;0.80;;
48526;SDS011;34317;51.660;5.824;2024-03-29T14:19:24;1.55;;;0.80;;
48526;SDS011;34317;51.660;5.824;2024-03-29T14:21:52;0.90;;;0.70;;
48526;SDS011;34317;51.660;5.824;2024-03-29T14:24:18;1.92;;;0.82;;
48526;SDS011;34317;51.660;5.824;2024-03-29T14:26:44;1.17;;;0.80;;
48526;SDS011;34317;51.660;5.824;2024-03-29T14:29:11;1.00;;;0.80;;
48526;SDS011;34317;51.660;5.824;2024-03-29T14:31:41;1.02;;;0.50;;
48526;SDS011;34317;51.660;5.824;2024-03-29T14:34:10;2.38;;;0.70;;
48526;SDS011;34317;51.660;5.824;2024-03-29T14:36:36;1.55;;;0.80;;
48526;SDS011;34317;51.660;5.824;2024-03-29T14:39:03;3.60;;;0.80;;
48526;SDS011;34317;51.660;5.824;2024-03-29T14:41:29;0.60;;;0.60;;
48526;SDS011;34317;51.660;5.824;2024-03-29T14:43:55;1.00;;;0.70;;
48526;SDS011;34317;51.660;5.824;2024-03-29T14:46:23;1.10;;;0.80;;
48526;SDS011;34317;51.660;5.824;2024-03-29T14:48:50;0.90;;;0.80;;
48526;SDS011;34317;51.660;5.824;2024-03-29T14:51:16;3.45;;;0.73;;
48526;SDS011;34317;51.660;5.824;2024-03-29T14:53:43;1.35;;;0.70;;
48526;SDS011;34317;51.660;5.824;2024-03-29T14:56:17;0.98;;;0.50;;
48526;SDS011;34317;51.660;5.824;2024-03-29T14:58:44;0.63;;;0.50;;
48526;SDS011;34317;51.660;5.824;2024-03-29T15:01:10;0.80;;;0.57;;
48526;SDS011;34317;51.660;5.824;2024-03-29T15:03:37;0.50;;;0.50;;